sensor_id;sensor_type;location;lat;lon;timestamp;temperature;humidity
9537;DHT22;4807;48.024;11.726;2023-05-01T02:03:30;5.80;99.90
9537;DHT22;4807;48.024;11.726;2023-05-01T02:06:42;5.80;99.90
9537;DHT22;4807;48.024;11.726;2023-05-01T02:09:54;5.60;99.90
9537;DHT22;4807;48.024;11.726;2023-05-01T02:13:05;5.40;99.90
9537;DHT22;4807;48.024;11.726;2023-05-01T02:16:15;5.50;99.90
9537;DHT22;4807;48.024;11.726;2023-05-01T02:19:25;5.40;99.90
9537;DHT22;4807;48.024;11.726;2023-05-01T02:22:35;4.30;99.90
9537;DHT22;4807;48.024;11.726;2023-05-01T02:25:46;5.20;99.90
9537;DHT22;4807;48.024;11.726;2023-05-01T02:28:56;5.20;99.90
9537;DHT22;4807;48.024;11.726;2023-05-01T02:32:05;5.30;99.90
9537;DHT22;4807;48.024;11.726;2023-05-01T02:35:14;5.30;99.90
9537;DHT22;4807;48.024;11.726;2023-05-01T02:38:26;5.20;99.90
9537;DHT22;4807;48.024;11.726;2023-05-01T02:41:36;5.20;99.90
9537;DHT22;4807;48.024;11.726;2023-05-01T02:44:50;5.20;99.90
9537;DHT22;4807;48.024;11.726;2023-05-01T02:48:04;5.20;99.90
9537;DHT22;4807;48.024;11.726;2023-05-01T02:51:14;5.10;99.90
9537;DHT22;4807;48.024;11.726;2023-05-01T02:54:26;5.20;99.90
9537;DHT22;4807;48.024;11.726;2023-05-01T02:57:36;5.20;99.90
9537;DHT22;4807;48.024;11.726;2023-05-01T03:00:47;5.10;99.90
9537;DHT22;4807;48.024;11.726;2023-05-01T03:03:57;5.10;99.90
9537;DHT22;4807;48.024;11.726;2023-05-01T03:07:06;5.10;99.90
9537;DHT22;4807;48.024;11.726;2023-05-01T03:10:16;5.00;99.90
9537;DHT22;4807;48.024;11.726;2023-05-01T03:13:24;5.00;99.90
9537;DHT22;4807;48.024;11.726;2023-05-01T03:16:33;7.30;99.90
9537;DHT22;4807;48.024;11.726;2023-05-01T03:19:41;5.10;99.90
9537;DHT22;4807;48.024;11.726;2023-05-01T03:22:50;5.00;99.90
9537;DHT22;4807;48.024;11.726;2023-05-01T03:25:59;5.00;99.90
9537;DHT22;4807;48.024;11.726;2023-05-01T03:29:08;5.00;99.90
9537;DHT22;4807;48.024;11.726;2023-05-01T03:32:19;5.00;99.90
9537;DHT22;4807;48.024;11.726;2023-05-01T03:35:29;5.00;99.90
9537;DHT22;4807;48.024;11.726;2023-05-01T03:38:38;4.90;99.90
9537;DHT22;4807;48.024;11.726;2023-05-01T03:46:56;5.00;99.90
9537;DHT22;4807;48.024;11.726;2023-05-01T03:50:08;4.90;99.90
9537;DHT22;4807;48.024;11.726;2023-05-01T03:53:19;4.90;99.90
9537;DHT22;4807;48.024;11.726;2023-05-01T03:56:29;5.00;99.90
9537;DHT22;4807;48.024;11.726;2023-05-01T03:59:42;5.00;99.90
9537;DHT22;4807;48.024;11.726;2023-05-01T04:02:52;5.10;99.90
9537;DHT22;4807;48.024;11.726;2023-05-01T04:06:03;5.10;99.90
9537;DHT22;4807;48.024;11.726;2023-05-01T04:09:12;5.00;99.90
9537;DHT22;4807;48.024;11.726;2023-05-01T04:12:20;4.90;99.90
9537;DHT22;4807;48.024;11.726;2023-05-01T04:15:28;4.90;99.90
9537;DHT22;4807;48.024;11.726;2023-05-01T04:18:38;4.90;99.90
9537;DHT22;4807;48.024;11.726;2023-05-01T04:21:47;4.90;99.90
9537;DHT22;4807;48.024;11.726;2023-05-01T04:24:55;5.00;99.90
9537;DHT22;4807;48.024;11.726;2023-05-01T04:28:04;5.00;99.90
9537;DHT22;4807;48.024;11.726;2023-05-01T04:31:12;5.20;99.90
9537;DHT22;4807;48.024;11.726;2023-05-01T04:34:22;5.20;99.90
9537;DHT22;4807;48.024;11.726;2023-05-01T04:37:35;5.20;99.90
9537;DHT22;4807;48.024;11.726;2023-05-01T04:40:43;5.40;99.90
9537;DHT22;4807;48.024;11.726;2023-05-01T04:43:52;5.70;99.90
9537;DHT22;4807;48.024;11.726;2023-05-01T04:47:01;5.80;99.90
9537;DHT22;4807;48.024;11.726;2023-05-01T04:50:11;6.60;99.90
9537;DHT22;4807;48.024;11.726;2023-05-01T04:53:20;6.10;99.90
9537;DHT22;4807;48.024;11.726;2023-05-01T04:56:28;6.30;99.90
9537;DHT22;4807;48.024;11.726;2023-05-01T04:59:39;6.50;99.90
9537;DHT22;4807;48.024;11.726;2023-05-01T05:02:49;6.80;99.90
9537;DHT22;4807;48.024;11.726;2023-05-01T05:05:59;7.10;99.90
9537;DHT22;4807;48.024;11.726;2023-05-01T05:09:07;7.30;99.90
9537;DHT22;4807;48.024;11.726;2023-05-01T05:12:16;7.50;99.90
9537;DHT22;4807;48.024;11.726;2023-05-01T05:15:25;7.60;99.90
9537;DHT22;4807;48.024;11.726;2023-05-01T05:18:33;7.70;99.90
9537;DHT22;4807;48.024;11.726;2023-05-01T05:21:43;7.80;99.90
9537;DHT22;4807;48.024;11.726;2023-05-01T05:24:52;8.00;99.90
9537;DHT22;4807;48.024;11.726;2023-05-01T05:28:01;8.20;99.90
9537;DHT22;4807;48.024;11.726;2023-05-01T05:31:10;8.50;99.90
9537;DHT22;4807;48.024;11.726;2023-05-01T05:34:18;8.80;99.90
9537;DHT22;4807;48.024;11.726;2023-05-01T05:37:28;9.00;99.90
9537;DHT22;4807;48.024;11.726;2023-05-01T05:40:36;9.40;99.90
9537;DHT22;4807;48.024;11.726;2023-05-01T05:43:45;9.70;99.90
9537;DHT22;4807;48.024;11.726;2023-05-01T05:46:53;10.00;99.90
9537;DHT22;4807;48.024;11.726;2023-05-01T05:50:09;10.20;99.90
9537;DHT22;4807;48.024;11.726;2023-05-01T05:53:21;10.40;99.90
9537;DHT22;4807;48.024;11.726;2023-05-01T05:56:32;10.60;99.90
9537;DHT22;4807;48.024;11.726;2023-05-01T05:59:40;10.70;99.40
9537;DHT22;4807;48.024;11.726;2023-05-01T06:02:52;11.00;98.70
9537;DHT22;4807;48.024;11.726;2023-05-01T06:06:03;11.20;98.30
9537;DHT22;4807;48.024;11.726;2023-05-01T06:09:15;11.30;97.60
9537;DHT22;4807;48.024;11.726;2023-05-01T06:12:24;11.40;97.90
9537;DHT22;4807;48.024;11.726;2023-05-01T06:15:33;11.60;96.90
9537;DHT22;4807;48.024;11.726;2023-05-01T06:18:44;11.60;97.00
9537;DHT22;4807;48.024;11.726;2023-05-01T06:21:53;11.50;97.00
9537;DHT22;4807;48.024;11.726;2023-05-01T06:25:04;11.60;97.10
9537;DHT22;4807;48.024;11.726;2023-05-01T06:28:15;11.70;96.80
9537;DHT22;4807;48.024;11.726;2023-05-01T06:31:24;11.90;96.10
9537;DHT22;4807;48.024;11.726;2023-05-01T06:34:35;11.90;96.50
9537;DHT22;4807;48.024;11.726;2023-05-01T06:37:44;12.10;96.40
9537;DHT22;4807;48.024;11.726;2023-05-01T06:40:55;12.20;96.10
9537;DHT22;4807;48.024;11.726;2023-05-01T06:44:04;12.40;96.10
9537;DHT22;4807;48.024;11.726;2023-05-01T06:47:13;12.70;96.10
9537;DHT22;4807;48.024;11.726;2023-05-01T06:50:22;13.10;95.70
9537;DHT22;4807;48.024;11.726;2023-05-01T06:53:31;13.30;95.30
9537;DHT22;4807;48.024;11.726;2023-05-01T06:56:42;13.00;95.90
9537;DHT22;4807;48.024;11.726;2023-05-01T06:59:52;13.20;95.10
9537;DHT22;4807;48.024;11.726;2023-05-01T07:03:02;13.40;95.90
9537;DHT22;4807;48.024;11.726;2023-05-01T07:06:11;13.80;94.80
9537;DHT22;4807;48.024;11.726;2023-05-01T07:09:21;14.20;93.60
9537;DHT22;4807;48.024;11.726;2023-05-01T07:12:32;13.90;94.30
9537;DHT22;4807;48.024;11.726;2023-05-01T07:15:40;15.80;95.70
9537;DHT22;4807;48.024;11.726;2023-05-01T07:18:49;14.20;94.50
9537;DHT22;4807;48.024;11.726;2023-05-01T07:21:57;14.10;94.20
9537;DHT22;4807;48.024;11.726;2023-05-01T07:25:06;14.20;94.10
9537;DHT22;4807;48.024;11.726;2023-05-01T07:28:17;14.40;93.60
9537;DHT22;4807;48.024;11.726;2023-05-01T07:31:27;14.50;93.60
9537;DHT22;4807;48.024;11.726;2023-05-01T07:34:35;14.60;93.30
9537;DHT22;4807;48.024;11.726;2023-05-01T07:37:44;14.60;93.20
9537;DHT22;4807;48.024;11.726;2023-05-01T07:40:52;14.50;93.60
9537;DHT22;4807;48.024;11.726;2023-05-01T07:44:03;14.20;93.30
9537;DHT22;4807;48.024;11.726;2023-05-01T07:47:11;13.80;94.10
9537;DHT22;4807;48.024;11.726;2023-05-01T07:50:20;13.50;95.40
9537;DHT22;4807;48.024;11.726;2023-05-01T07:53:28;13.60;94.70
9537;DHT22;4807;48.024;11.726;2023-05-01T07:56:36;13.50;95.10
9537;DHT22;4807;48.024;11.726;2023-05-01T07:59:48;13.70;95.50
9537;DHT22;4807;48.024;11.726;2023-05-01T08:03:01;13.90;95.00
9537;DHT22;4807;48.024;11.726;2023-05-01T08:06:10;13.80;95.20
9537;DHT22;4807;48.024;11.726;2023-05-01T08:09:18;13.90;95.60
9537;DHT22;4807;48.024;11.726;2023-05-01T08:12:27;13.70;95.50
9537;DHT22;4807;48.024;11.726;2023-05-01T08:15:38;13.60;96.00
9537;DHT22;4807;48.024;11.726;2023-05-01T08:18:48;13.70;96.40
9537;DHT22;4807;48.024;11.726;2023-05-01T08:21:57;13.80;95.90
9537;DHT22;4807;48.024;11.726;2023-05-01T08:25:06;13.80;96.40
9537;DHT22;4807;48.024;11.726;2023-05-01T08:28:15;13.80;96.60
9537;DHT22;4807;48.024;11.726;2023-05-01T08:31:25;13.80;96.60
9537;DHT22;4807;48.024;11.726;2023-05-01T08:34:33;13.90;97.00
9537;DHT22;4807;48.024;11.726;2023-05-01T08:37:42;14.00;96.90
9537;DHT22;4807;48.024;11.726;2023-05-01T08:40:51;14.10;96.30
9537;DHT22;4807;48.024;11.726;2023-05-01T08:44:02;14.20;96.40
9537;DHT22;4807;48.024;11.726;2023-05-01T08:47:15;14.30;96.40
9537;DHT22;4807;48.024;11.726;2023-05-01T08:50:25;14.40;96.30
9537;DHT22;4807;48.024;11.726;2023-05-01T08:53:34;14.50;96.40
9537;DHT22;4807;48.024;11.726;2023-05-01T08:56:46;14.40;96.20
9537;DHT22;4807;48.024;11.726;2023-05-01T08:59:55;14.00;97.20
9537;DHT22;4807;48.024;11.726;2023-05-01T09:03:07;14.10;97.80
9537;DHT22;4807;48.024;11.726;2023-05-01T09:06:19;14.20;97.00
9537;DHT22;4807;48.024;11.726;2023-05-01T09:09:30;14.20;97.00
9537;DHT22;4807;48.024;11.726;2023-05-01T09:12:40;14.00;97.30
9537;DHT22;4807;48.024;11.726;2023-05-01T09:15:50;13.60;98.50
9537;DHT22;4807;48.024;11.726;2023-05-01T09:19:00;13.80;98.90
9537;DHT22;4807;48.024;11.726;2023-05-01T09:22:09;13.70;98.80
9537;DHT22;4807;48.024;11.726;2023-05-01T09:25:17;13.40;99.50
9537;DHT22;4807;48.024;11.726;2023-05-01T09:28:39;13.40;99.90
9537;DHT22;4807;48.024;11.726;2023-05-01T09:31:48;13.80;99.40
9537;DHT22;4807;48.024;11.726;2023-05-01T09:35:10;14.20;99.30
9537;DHT22;4807;48.024;11.726;2023-05-01T09:38:21;14.50;98.80
9537;DHT22;4807;48.024;11.726;2023-05-01T09:41:31;14.80;98.30
9537;DHT22;4807;48.024;11.726;2023-05-01T09:44:40;14.90;98.10
9537;DHT22;4807;48.024;11.726;2023-05-01T09:47:50;14.70;97.80
9537;DHT22;4807;48.024;11.726;2023-05-01T09:51:01;14.30;98.50
9537;DHT22;4807;48.024;11.726;2023-05-01T09:54:27;14.10;99.50
9537;DHT22;4807;48.024;11.726;2023-05-01T09:57:36;14.40;99.90
9537;DHT22;4807;48.024;11.726;2023-05-01T10:00:47;14.70;98.80
9537;DHT22;4807;48.024;11.726;2023-05-01T10:03:56;14.70;98.10
9537;DHT22;4807;48.024;11.726;2023-05-01T10:07:12;14.30;99.10
9537;DHT22;4807;48.024;11.726;2023-05-01T10:10:21;14.40;99.70
9537;DHT22;4807;48.024;11.726;2023-05-01T10:13:29;14.70;99.00
9537;DHT22;4807;48.024;11.726;2023-05-01T10:16:38;14.70;98.40
9537;DHT22;4807;48.024;11.726;2023-05-01T10:19:47;14.10;99.10
9537;DHT22;4807;48.024;11.726;2023-05-01T10:22:58;14.10;99.90
9537;DHT22;4807;48.024;11.726;2023-05-01T10:26:11;13.40;99.90
9537;DHT22;4807;48.024;11.726;2023-05-01T10:29:22;12.70;99.90
9537;DHT22;4807;48.024;11.726;2023-05-01T10:32:31;13.20;99.90
9537;DHT22;4807;48.024;11.726;2023-05-01T10:35:43;14.00;99.90
9537;DHT22;4807;48.024;11.726;2023-05-01T10:38:56;14.80;99.90
9537;DHT22;4807;48.024;11.726;2023-05-01T10:42:05;15.50;98.40
9537;DHT22;4807;48.024;11.726;2023-05-01T10:45:29;15.80;97.90
9537;DHT22;4807;48.024;11.726;2023-05-01T10:48:55;15.50;98.30
9537;DHT22;4807;48.024;11.726;2023-05-01T10:52:04;14.30;99.90
9537;DHT22;4807;48.024;11.726;2023-05-01T10:55:33;13.50;99.90
9537;DHT22;4807;48.024;11.726;2023-05-01T10:58:56;13.60;99.90
9537;DHT22;4807;48.024;11.726;2023-05-01T11:02:20;14.30;99.90
9537;DHT22;4807;48.024;11.726;2023-05-01T11:09:35;14.60;99.30
9537;DHT22;4807;48.024;11.726;2023-05-01T11:12:49;15.10;98.50
9537;DHT22;4807;48.024;11.726;2023-05-01T11:15:58;15.40;97.40
9537;DHT22;4807;48.024;11.726;2023-05-01T11:19:46;15.20;98.10
9537;DHT22;4807;48.024;11.726;2023-05-01T11:22:58;15.80;96.80
9537;DHT22;4807;48.024;11.726;2023-05-01T11:26:06;15.30;96.70
9537;DHT22;4807;48.024;11.726;2023-05-01T11:29:17;14.30;99.20
9537;DHT22;4807;48.024;11.726;2023-05-01T11:32:26;14.50;99.50
9537;DHT22;4807;48.024;11.726;2023-05-01T11:35:36;14.60;99.30
9537;DHT22;4807;48.024;11.726;2023-05-01T11:38:51;15.10;98.80
9537;DHT22;4807;48.024;11.726;2023-05-01T11:42:05;14.80;99.00
9537;DHT22;4807;48.024;11.726;2023-05-01T11:45:18;14.80;99.90
9537;DHT22;4807;48.024;11.726;2023-05-01T11:48:30;15.00;98.50
9537;DHT22;4807;48.024;11.726;2023-05-01T11:51:38;14.70;98.60
9537;DHT22;4807;48.024;11.726;2023-05-01T11:54:47;13.80;99.90
9537;DHT22;4807;48.024;11.726;2023-05-01T11:57:56;14.10;99.90
9537;DHT22;4807;48.024;11.726;2023-05-01T12:01:06;14.00;99.90
9537;DHT22;4807;48.024;11.726;2023-05-01T12:04:23;14.70;99.90
9537;DHT22;4807;48.024;11.726;2023-05-01T12:07:38;14.40;98.90
9537;DHT22;4807;48.024;11.726;2023-05-01T12:10:47;13.80;99.90
9537;DHT22;4807;48.024;11.726;2023-05-01T12:13:57;14.10;99.90
9537;DHT22;4807;48.024;11.726;2023-05-01T12:17:07;14.40;99.70
9537;DHT22;4807;48.024;11.726;2023-05-01T12:20:33;14.30;99.90
9537;DHT22;4807;48.024;11.726;2023-05-01T12:23:42;13.40;99.90
9537;DHT22;4807;48.024;11.726;2023-05-01T12:26:59;13.10;99.90
9537;DHT22;4807;48.024;11.726;2023-05-01T12:30:10;13.10;99.90
9537;DHT22;4807;48.024;11.726;2023-05-01T12:33:20;13.40;99.90
9537;DHT22;4807;48.024;11.726;2023-05-01T12:36:30;13.90;99.90
9537;DHT22;4807;48.024;11.726;2023-05-01T12:39:42;14.10;99.90
9537;DHT22;4807;48.024;11.726;2023-05-01T12:42:55;14.00;99.90
9537;DHT22;4807;48.024;11.726;2023-05-01T12:46:05;13.70;99.90
9537;DHT22;4807;48.024;11.726;2023-05-01T12:49:23;13.30;99.90
9537;DHT22;4807;48.024;11.726;2023-05-01T12:52:32;11.00;99.90
9537;DHT22;4807;48.024;11.726;2023-05-01T12:55:44;13.20;99.90
9537;DHT22;4807;48.024;11.726;2023-05-01T12:58:54;13.20;99.90
9537;DHT22;4807;48.024;11.726;2023-05-01T13:02:04;13.70;99.90
9537;DHT22;4807;48.024;11.726;2023-05-01T13:05:15;14.00;99.90
9537;DHT22;4807;48.024;11.726;2023-05-01T13:08:25;14.00;99.90
9537;DHT22;4807;48.024;11.726;2023-05-01T13:11:37;14.80;99.90
9537;DHT22;4807;48.024;11.726;2023-05-01T13:14:45;15.10;98.30
9537;DHT22;4807;48.024;11.726;2023-05-01T13:18:02;14.90;98.80
9537;DHT22;4807;48.024;11.726;2023-05-01T13:21:14;14.50;99.30
9537;DHT22;4807;48.024;11.726;2023-05-01T13:24:34;14.40;98.70
9537;DHT22;4807;48.024;11.726;2023-05-01T13:27:47;14.40;99.40
9537;DHT22;4807;48.024;11.726;2023-05-01T13:30:56;14.70;98.70
9537;DHT22;4807;48.024;11.726;2023-05-01T13:34:05;14.40;98.90
9537;DHT22;4807;48.024;11.726;2023-05-01T13:37:15;14.00;99.90
9537;DHT22;4807;48.024;11.726;2023-05-01T13:40:25;14.00;99.90
9537;DHT22;4807;48.024;11.726;2023-05-01T13:43:34;13.90;99.80
9537;DHT22;4807;48.024;11.726;2023-05-01T13:46:44;14.20;99.40
9537;DHT22;4807;48.024;11.726;2023-05-01T13:49:53;14.80;98.30
9537;DHT22;4807;48.024;11.726;2023-05-01T13:53:05;14.70;97.80
9537;DHT22;4807;48.024;11.726;2023-05-01T13:56:14;14.10;99.90
9537;DHT22;4807;48.024;11.726;2023-05-01T13:59:23;13.80;99.90
9537;DHT22;4807;48.024;11.726;2023-05-01T14:02:31;13.50;99.90
9537;DHT22;4807;48.024;11.726;2023-05-01T14:05:40;12.60;99.60
9537;DHT22;4807;48.024;11.726;2023-05-01T14:08:51;13.60;99.40
9537;DHT22;4807;48.024;11.726;2023-05-01T14:12:00;13.80;99.90
9537;DHT22;4807;48.024;11.726;2023-05-01T14:15:09;13.80;99.90
9537;DHT22;4807;48.024;11.726;2023-05-01T14:18:20;13.80;99.60
9537;DHT22;4807;48.024;11.726;2023-05-01T14:21:28;13.80;99.20
9537;DHT22;4807;48.024;11.726;2023-05-01T14:24:40;13.80;99.30
9537;DHT22;4807;48.024;11.726;2023-05-01T14:27:48;13.80;99.50
9537;DHT22;4807;48.024;11.726;2023-05-01T14:30:57;13.60;99.50
9537;DHT22;4807;48.024;11.726;2023-05-01T14:34:05;13.80;99.60
9537;DHT22;4807;48.024;11.726;2023-05-01T14:37:13;13.80;99.50
9537;DHT22;4807;48.024;11.726;2023-05-01T14:40:25;14.00;97.90
9537;DHT22;4807;48.024;11.726;2023-05-01T14:43:34;14.10;98.30
9537;DHT22;4807;48.024;11.726;2023-05-01T14:46:44;14.30;97.00
9537;DHT22;4807;48.024;11.726;2023-05-01T14:49:55;14.20;97.70
9537;DHT22;4807;48.024;11.726;2023-05-01T14:53:03;14.00;97.80
9537;DHT22;4807;48.024;11.726;2023-05-01T14:56:13;13.80;98.00
9537;DHT22;4807;48.024;11.726;2023-05-01T14:59:21;13.70;98.30
9537;DHT22;4807;48.024;11.726;2023-05-01T15:02:30;13.50;99.30
9537;DHT22;4807;48.024;11.726;2023-05-01T15:05:38;13.30;99.60
9537;DHT22;4807;48.024;11.726;2023-05-01T15:08:47;13.50;99.50
9537;DHT22;4807;48.024;11.726;2023-05-01T15:11:57;13.80;99.70
9537;DHT22;4807;48.024;11.726;2023-05-01T15:15:06;14.10;98.20
9537;DHT22;4807;48.024;11.726;2023-05-01T15:18:16;14.20;97.70
9537;DHT22;4807;48.024;11.726;2023-05-01T15:21:24;14.20;97.20
9537;DHT22;4807;48.024;11.726;2023-05-01T15:24:32;14.10;97.50
9537;DHT22;4807;48.024;11.726;2023-05-01T15:27:42;14.10;98.10
9537;DHT22;4807;48.024;11.726;2023-05-01T15:30:52;14.00;98.50
9537;DHT22;4807;48.024;11.726;2023-05-01T15:34:00;14.00;97.80
9537;DHT22;4807;48.024;11.726;2023-05-01T15:37:08;14.00;97.90
9537;DHT22;4807;48.024;11.726;2023-05-01T15:40:19;13.80;98.00
9537;DHT22;4807;48.024;11.726;2023-05-01T15:43:29;13.70;98.60
9537;DHT22;4807;48.024;11.726;2023-05-01T15:46:37;13.70;98.80
9537;DHT22;4807;48.024;11.726;2023-05-01T15:49:47;13.60;99.10
9537;DHT22;4807;48.024;11.726;2023-05-01T15:52:56;13.50;99.20
9537;DHT22;4807;48.024;11.726;2023-05-01T15:56:04;13.30;99.40
9537;DHT22;4807;48.024;11.726;2023-05-01T15:59:16;13.20;99.90
9537;DHT22;4807;48.024;11.726;2023-05-01T16:02:30;13.20;99.90
9537;DHT22;4807;48.024;11.726;2023-05-01T16:05:45;13.10;99.90
9537;DHT22;4807;48.024;11.726;2023-05-01T16:08:58;13.00;99.90
9537;DHT22;4807;48.024;11.726;2023-05-01T16:12:08;13.00;99.90
9537;DHT22;4807;48.024;11.726;2023-05-01T16:15:21;12.80;99.90
9537;DHT22;4807;48.024;11.726;2023-05-01T16:18:33;12.80;99.90
9537;DHT22;4807;48.024;11.726;2023-05-01T16:21:42;12.80;99.90
9537;DHT22;4807;48.024;11.726;2023-05-01T16:24:50;12.70;99.90
9537;DHT22;4807;48.024;11.726;2023-05-01T16:27:59;12.60;99.90
9537;DHT22;4807;48.024;11.726;2023-05-01T16:31:13;12.60;99.90
9537;DHT22;4807;48.024;11.726;2023-05-01T16:34:33;12.50;99.90
9537;DHT22;4807;48.024;11.726;2023-05-01T16:37:45;12.50;99.90
9537;DHT22;4807;48.024;11.726;2023-05-01T16:40:53;12.40;99.90
9537;DHT22;4807;48.024;11.726;2023-05-01T16:44:01;12.30;99.90
9537;DHT22;4807;48.024;11.726;2023-05-01T16:47:12;12.30;99.90
9537;DHT22;4807;48.024;11.726;2023-05-01T16:50:21;12.30;99.90
9537;DHT22;4807;48.024;11.726;2023-05-01T16:53:29;12.30;99.90
9537;DHT22;4807;48.024;11.726;2023-05-01T16:56:38;12.40;99.90
9537;DHT22;4807;48.024;11.726;2023-05-01T16:59:46;12.30;99.90
9537;DHT22;4807;48.024;11.726;2023-05-01T17:02:56;12.20;99.90
9537;DHT22;4807;48.024;11.726;2023-05-01T17:06:05;12.10;99.90
9537;DHT22;4807;48.024;11.726;2023-05-01T17:09:13;12.10;99.90
9537;DHT22;4807;48.024;11.726;2023-05-01T17:12:33;11.90;99.90
9537;DHT22;4807;48.024;11.726;2023-05-01T17:15:41;11.90;99.90
9537;DHT22;4807;48.024;11.726;2023-05-01T17:18:53;11.90;99.90
9537;DHT22;4807;48.024;11.726;2023-05-01T17:22:02;11.80;99.90
9537;DHT22;4807;48.024;11.726;2023-05-01T17:25:11;11.60;99.90
9537;DHT22;4807;48.024;11.726;2023-05-01T17:28:20;11.60;99.90
9537;DHT22;4807;48.024;11.726;2023-05-01T17:31:32;11.60;99.90
9537;DHT22;4807;48.024;11.726;2023-05-01T17:34:43;11.60;99.90
9537;DHT22;4807;48.024;11.726;2023-05-01T17:37:51;11.70;99.90
9537;DHT22;4807;48.024;11.726;2023-05-01T17:40:59;11.60;99.90
9537;DHT22;4807;48.024;11.726;2023-05-01T17:44:08;11.60;99.90
9537;DHT22;4807;48.024;11.726;2023-05-01T17:47:17;11.60;99.90
9537;DHT22;4807;48.024;11.726;2023-05-01T17:50:26;11.40;99.90
9537;DHT22;4807;48.024;11.726;2023-05-01T17:53:35;11.40;99.90
9537;DHT22;4807;48.024;11.726;2023-05-01T17:56:43;11.40;99.90
9537;DHT22;4807;48.024;11.726;2023-05-01T17:59:52;11.40;99.90
9537;DHT22;4807;48.024;11.726;2023-05-01T18:03:00;11.40;99.90
9537;DHT22;4807;48.024;11.726;2023-05-01T18:06:11;11.40;99.90
9537;DHT22;4807;48.024;11.726;2023-05-01T18:09:20;11.40;99.90
9537;DHT22;4807;48.024;11.726;2023-05-01T18:12:29;11.30;99.90
9537;DHT22;4807;48.024;11.726;2023-05-01T18:15:37;11.40;99.90
9537;DHT22;4807;48.024;11.726;2023-05-01T18:18:45;11.40;99.90
9537;DHT22;4807;48.024;11.726;2023-05-01T18:21:55;11.30;99.90
9537;DHT22;4807;48.024;11.726;2023-05-01T18:25:05;11.30;99.90
9537;DHT22;4807;48.024;11.726;2023-05-01T18:28:15;11.30;99.90
9537;DHT22;4807;48.024;11.726;2023-05-01T18:31:25;11.30;99.90
9537;DHT22;4807;48.024;11.726;2023-05-01T18:34:33;11.30;99.90
9537;DHT22;4807;48.024;11.726;2023-05-01T18:37:43;11.20;99.90
9537;DHT22;4807;48.024;11.726;2023-05-01T18:40:52;11.20;99.90
9537;DHT22;4807;48.024;11.726;2023-05-01T18:44:00;11.10;99.90
9537;DHT22;4807;48.024;11.726;2023-05-01T18:47:09;10.90;99.90
9537;DHT22;4807;48.024;11.726;2023-05-01T18:50:18;10.90;99.90
9537;DHT22;4807;48.024;11.726;2023-05-01T18:53:30;10.80;99.90
9537;DHT22;4807;48.024;11.726;2023-05-01T18:56:38;10.60;99.90
9537;DHT22;4807;48.024;11.726;2023-05-01T18:59:47;10.70;99.90
9537;DHT22;4807;48.024;11.726;2023-05-01T19:02:56;10.70;99.90
9537;DHT22;4807;48.024;11.726;2023-05-01T19:06:05;10.60;99.90
9537;DHT22;4807;48.024;11.726;2023-05-01T19:09:17;10.50;99.90
9537;DHT22;4807;48.024;11.726;2023-05-01T19:12:26;10.40;99.90
9537;DHT22;4807;48.024;11.726;2023-05-01T19:15:34;10.50;99.90
9537;DHT22;4807;48.024;11.726;2023-05-01T19:18:43;10.50;99.90
9537;DHT22;4807;48.024;11.726;2023-05-01T19:21:54;10.40;99.90
9537;DHT22;4807;48.024;11.726;2023-05-01T19:25:04;7.40;99.90
9537;DHT22;4807;48.024;11.726;2023-05-01T19:28:14;10.30;99.90
9537;DHT22;4807;48.024;11.726;2023-05-01T19:31:22;10.40;99.90
9537;DHT22;4807;48.024;11.726;2023-05-01T19:34:31;10.30;99.90
9537;DHT22;4807;48.024;11.726;2023-05-01T19:37:40;10.20;99.90
9537;DHT22;4807;48.024;11.726;2023-05-01T19:40:50;10.20;99.90
9537;DHT22;4807;48.024;11.726;2023-05-01T19:43:58;10.10;99.90
9537;DHT22;4807;48.024;11.726;2023-05-01T19:47:08;10.10;99.90
9537;DHT22;4807;48.024;11.726;2023-05-01T19:50:17;10.10;99.90
9537;DHT22;4807;48.024;11.726;2023-05-01T19:53:26;10.00;99.90
9537;DHT22;4807;48.024;11.726;2023-05-01T19:56:38;10.00;99.90
9537;DHT22;4807;48.024;11.726;2023-05-01T19:59:46;10.00;99.90
9537;DHT22;4807;48.024;11.726;2023-05-01T20:02:57;10.00;99.90
9537;DHT22;4807;48.024;11.726;2023-05-01T20:06:06;9.90;99.90
9537;DHT22;4807;48.024;11.726;2023-05-01T20:09:15;9.90;99.90
9537;DHT22;4807;48.024;11.726;2023-05-01T20:12:26;9.90;99.90
9537;DHT22;4807;48.024;11.726;2023-05-01T20:15:34;9.90;99.90
9537;DHT22;4807;48.024;11.726;2023-05-01T20:18:42;9.90;99.90
9537;DHT22;4807;48.024;11.726;2023-05-01T20:21:51;9.90;99.90
9537;DHT22;4807;48.024;11.726;2023-05-01T20:25:00;10.00;99.90
9537;DHT22;4807;48.024;11.726;2023-05-01T20:28:11;9.90;99.90
9537;DHT22;4807;48.024;11.726;2023-05-01T20:31:21;9.90;99.90
9537;DHT22;4807;48.024;11.726;2023-05-01T20:34:30;9.90;99.90
9537;DHT22;4807;48.024;11.726;2023-05-01T20:37:39;9.80;99.90
9537;DHT22;4807;48.024;11.726;2023-05-01T20:40:47;9.70;99.90
9537;DHT22;4807;48.024;11.726;2023-05-01T20:43:58;9.80;99.90
9537;DHT22;4807;48.024;11.726;2023-05-01T20:47:09;9.70;99.90
9537;DHT22;4807;48.024;11.726;2023-05-01T20:50:17;9.70;99.90
9537;DHT22;4807;48.024;11.726;2023-05-01T20:53:26;9.80;99.90
9537;DHT22;4807;48.024;11.726;2023-05-01T20:56:34;9.80;99.90
9537;DHT22;4807;48.024;11.726;2023-05-01T20:59:48;9.80;99.90
9537;DHT22;4807;48.024;11.726;2023-05-01T21:02:57;9.70;99.90
9537;DHT22;4807;48.024;11.726;2023-05-01T21:06:06;9.70;99.90
9537;DHT22;4807;48.024;11.726;2023-05-01T21:09:15;9.60;99.90
9537;DHT22;4807;48.024;11.726;2023-05-01T21:12:23;9.50;99.90
9537;DHT22;4807;48.024;11.726;2023-05-01T21:15:34;9.50;99.90
9537;DHT22;4807;48.024;11.726;2023-05-01T21:18:42;9.50;99.90
9537;DHT22;4807;48.024;11.726;2023-05-01T21:21:51;9.50;99.90
9537;DHT22;4807;48.024;11.726;2023-05-01T21:25:01;9.50;99.90
9537;DHT22;4807;48.024;11.726;2023-05-01T21:28:10;9.60;99.90
9537;DHT22;4807;48.024;11.726;2023-05-01T21:31:30;9.40;99.90
9537;DHT22;4807;48.024;11.726;2023-05-01T21:34:39;9.40;99.90
9537;DHT22;4807;48.024;11.726;2023-05-01T21:37:47;9.40;99.90
9537;DHT22;4807;48.024;11.726;2023-05-01T21:40:56;9.40;99.90
9537;DHT22;4807;48.024;11.726;2023-05-01T21:44:06;9.40;99.90
9537;DHT22;4807;48.024;11.726;2023-05-01T21:47:16;9.30;99.90
9537;DHT22;4807;48.024;11.726;2023-05-01T21:50:24;9.40;99.90
9537;DHT22;4807;48.024;11.726;2023-05-01T21:53:40;9.40;99.90
9537;DHT22;4807;48.024;11.726;2023-05-01T21:56:49;9.40;99.90
9537;DHT22;4807;48.024;11.726;2023-05-01T21:59:59;9.40;99.90
9537;DHT22;4807;48.024;11.726;2023-05-01T22:03:16;9.40;99.90
9537;DHT22;4807;48.024;11.726;2023-05-01T22:06:25;9.30;99.90
9537;DHT22;4807;48.024;11.726;2023-05-01T22:09:34;9.30;99.90
9537;DHT22;4807;48.024;11.726;2023-05-01T22:12:43;9.30;99.90
9537;DHT22;4807;48.024;11.726;2023-05-01T22:15:51;9.20;99.90
9537;DHT22;4807;48.024;11.726;2023-05-01T22:19:01;9.20;99.90
9537;DHT22;4807;48.024;11.726;2023-05-01T22:22:10;9.20;99.90
9537;DHT22;4807;48.024;11.726;2023-05-01T22:25:18;9.20;99.90
9537;DHT22;4807;48.024;11.726;2023-05-01T22:28:27;9.20;99.90
9537;DHT22;4807;48.024;11.726;2023-05-01T22:31:35;9.30;99.90
9537;DHT22;4807;48.024;11.726;2023-05-01T22:34:45;9.30;99.90
9537;DHT22;4807;48.024;11.726;2023-05-01T22:37:54;9.30;99.90